sensor_id;sensor_type;location;lat;lon;timestamp;P1;durP1;ratioP1;P2;durP2;ratioP2
27893;SDS011;15240;50.812;4.792;2023-03-18T00:01:28;30.67;;;17.67;;
27893;SDS011;15240;50.812;4.792;2023-03-18T00:03:54;29.07;;;17.17;;
27893;SDS011;15240;50.812;4.792;2023-03-18T00:06:21;31.43;;;17.80;;
27893;SDS011;15240;50.812;4.792;2023-03-18T00:08:48;28.13;;;17.80;;
27893;SDS011;15240;50.812;4.792;2023-03-18T00:11:15;30.37;;;18.37;;
27893;SDS011;15240;50.812;4.792;2023-03-18T00:13:42;33.07;;;18.57;;
27893;SDS011;15240;50.812;4.792;2023-03-18T00:16:09;30.73;;;19.30;;
27893;SDS011;15240;50.812;4.792;2023-03-18T00:18:36;30.33;;;19.30;;
27893;SDS011;15240;50.812;4.792;2023-03-18T00:21:03;36.30;;;18.43;;
27893;SDS011;15240;50.812;4.792;2023-03-18T00:23:30;30.57;;;18.27;;
27893;SDS011;15240;50.812;4.792;2023-03-18T00:25:57;32.13;;;18.90;;
27893;SDS011;15240;50.812;4.792;2023-03-18T00:28:25;33.77;;;20.00;;
27893;SDS011;15240;50.812;4.792;2023-03-18T00:30:51;34.80;;;19.83;;
27893;SDS011;15240;50.812;4.792;2023-03-18T00:33:17;33.53;;;19.50;;
27893;SDS011;15240;50.812;4.792;2023-03-18T00:35:44;31.37;;;19.80;;
27893;SDS011;15240;50.812;4.792;2023-03-18T00:38:10;31.03;;;19.97;;
27893;SDS011;15240;50.812;4.792;2023-03-18T00:40:45;37.20;;;20.70;;
27893;SDS011;15240;50.812;4.792;2023-03-18T00:43:21;36.03;;;20.37;;
27893;SDS011;15240;50.812;4.792;2023-03-18T00:45:48;36.90;;;20.00;;
27893;SDS011;15240;50.812;4.792;2023-03-18T00:48:15;35.77;;;21.17;;
27893;SDS011;15240;50.812;4.792;2023-03-18T00:50:42;38.77;;;22.10;;
27893;SDS011;15240;50.812;4.792;2023-03-18T00:53:09;36.50;;;22.63;;
27893;SDS011;15240;50.812;4.792;2023-03-18T00:55:35;35.23;;;21.07;;
27893;SDS011;15240;50.812;4.792;2023-03-18T00:58:02;36.97;;;22.47;;
27893;SDS011;15240;50.812;4.792;2023-03-18T01:00:28;42.13;;;22.93;;
27893;SDS011;15240;50.812;4.792;2023-03-18T01:02:54;39.40;;;23.20;;
27893;SDS011;15240;50.812;4.792;2023-03-18T01:05:20;36.47;;;22.90;;
27893;SDS011;15240;50.812;4.792;2023-03-18T01:07:47;42.27;;;23.53;;
27893;SDS011;15240;50.812;4.792;2023-03-18T01:10:14;38.00;;;22.93;;
27893;SDS011;15240;50.812;4.792;2023-03-18T01:12:41;39.87;;;23.10;;
27893;SDS011;15240;50.812;4.792;2023-03-18T01:15:09;40.27;;;23.07;;
27893;SDS011;15240;50.812;4.792;2023-03-18T01:17:36;42.93;;;23.03;;
27893;SDS011;15240;50.812;4.792;2023-03-18T01:20:03;39.97;;;22.53;;
27893;SDS011;15240;50.812;4.792;2023-03-18T01:22:30;38.93;;;23.17;;
27893;SDS011;15240;50.812;4.792;2023-03-18T01:24:56;38.50;;;22.13;;
27893;SDS011;15240;50.812;4.792;2023-03-18T01:27:23;43.17;;;22.67;;
27893;SDS011;15240;50.812;4.792;2023-03-18T01:29:49;36.33;;;22.87;;
27893;SDS011;15240;50.812;4.792;2023-03-18T01:32:15;38.77;;;22.93;;
27893;SDS011;15240;50.812;4.792;2023-03-18T01:34:42;38.60;;;23.23;;
27893;SDS011;15240;50.812;4.792;2023-03-18T01:37:08;36.47;;;23.10;;
27893;SDS011;15240;50.812;4.792;2023-03-18T01:39:35;44.33;;;24.23;;
27893;SDS011;15240;50.812;4.792;2023-03-18T01:42:02;38.30;;;23.00;;
27893;SDS011;15240;50.812;4.792;2023-03-18T01:44:29;36.30;;;23.13;;
27893;SDS011;15240;50.812;4.792;2023-03-18T01:46:55;41.23;;;23.27;;
27893;SDS011;15240;50.812;4.792;2023-03-18T01:49:27;38.43;;;23.27;;
27893;SDS011;15240;50.812;4.792;2023-03-18T01:51:55;41.10;;;24.90;;
27893;SDS011;15240;50.812;4.792;2023-03-18T01:54:22;36.10;;;23.10;;
27893;SDS011;15240;50.812;4.792;2023-03-18T01:56:49;36.20;;;23.77;;
27893;SDS011;15240;50.812;4.792;2023-03-18T01:59:15;41.20;;;23.10;;
27893;SDS011;15240;50.812;4.792;2023-03-18T02:01:50;40.83;;;24.07;;
27893;SDS011;15240;50.812;4.792;2023-03-18T02:04:17;41.73;;;25.23;;
27893;SDS011;15240;50.812;4.792;2023-03-18T02:06:46;39.37;;;24.03;;
27893;SDS011;15240;50.812;4.792;2023-03-18T02:09:12;39.80;;;24.00;;
27893;SDS011;15240;50.812;4.792;2023-03-18T02:11:39;40.17;;;23.63;;
27893;SDS011;15240;50.812;4.792;2023-03-18T02:14:06;41.17;;;24.13;;
27893;SDS011;15240;50.812;4.792;2023-03-18T02:16:36;41.60;;;24.30;;
27893;SDS011;15240;50.812;4.792;2023-03-18T02:19:25;42.17;;;24.90;;
27893;SDS011;15240;50.812;4.792;2023-03-18T02:27:31;39.90;;;24.80;;
27893;SDS011;15240;50.812;4.792;2023-03-18T02:29:59;44.97;;;25.53;;
27893;SDS011;15240;50.812;4.792;2023-03-18T02:32:26;40.57;;;24.50;;
27893;SDS011;15240;50.812;4.792;2023-03-18T02:34:53;42.90;;;24.93;;
27893;SDS011;15240;50.812;4.792;2023-03-18T02:37:20;40.27;;;24.30;;
27893;SDS011;15240;50.812;4.792;2023-03-18T02:39:46;38.27;;;24.33;;
27893;SDS011;15240;50.812;4.792;2023-03-18T02:42:13;44.73;;;25.30;;
27893;SDS011;15240;50.812;4.792;2023-03-18T02:44:41;41.77;;;25.37;;
27893;SDS011;15240;50.812;4.792;2023-03-18T02:47:09;40.77;;;23.93;;
27893;SDS011;15240;50.812;4.792;2023-03-18T02:49:36;37.97;;;23.00;;
27893;SDS011;15240;50.812;4.792;2023-03-18T02:52:03;40.47;;;24.90;;
27893;SDS011;15240;50.812;4.792;2023-03-18T02:54:29;36.90;;;22.90;;
27893;SDS011;15240;50.812;4.792;2023-03-18T02:56:56;35.40;;;22.53;;
27893;SDS011;15240;50.812;4.792;2023-03-18T02:59:22;37.63;;;22.43;;
27893;SDS011;15240;50.812;4.792;2023-03-18T03:01:49;36.90;;;22.30;;
27893;SDS011;15240;50.812;4.792;2023-03-18T03:04:16;36.70;;;21.83;;
27893;SDS011;15240;50.812;4.792;2023-03-18T03:06:43;32.37;;;21.83;;
27893;SDS011;15240;50.812;4.792;2023-03-18T03:09:10;37.63;;;21.53;;
27893;SDS011;15240;50.812;4.792;2023-03-18T03:11:37;33.97;;;22.10;;
27893;SDS011;15240;50.812;4.792;2023-03-18T03:14:03;38.87;;;22.03;;
27893;SDS011;15240;50.812;4.792;2023-03-18T03:16:29;39.43;;;21.00;;
27893;SDS011;15240;50.812;4.792;2023-03-18T03:18:56;38.90;;;21.90;;
27893;SDS011;15240;50.812;4.792;2023-03-18T03:21:23;35.23;;;20.77;;
27893;SDS011;15240;50.812;4.792;2023-03-18T03:23:49;35.20;;;21.37;;
27893;SDS011;15240;50.812;4.792;2023-03-18T03:26:16;31.40;;;19.43;;
27893;SDS011;15240;50.812;4.792;2023-03-18T03:28:43;30.57;;;19.87;;
27893;SDS011;15240;50.812;4.792;2023-03-18T03:31:10;35.43;;;20.57;;
27893;SDS011;15240;50.812;4.792;2023-03-18T03:33:37;32.47;;;20.87;;
27893;SDS011;15240;50.812;4.792;2023-03-18T03:36:06;29.17;;;19.47;;
27893;SDS011;15240;50.812;4.792;2023-03-18T03:38:32;36.27;;;20.67;;
27893;SDS011;15240;50.812;4.792;2023-03-18T03:40:58;29.63;;;19.40;;
27893;SDS011;15240;50.812;4.792;2023-03-18T03:43:24;31.97;;;20.97;;
27893;SDS011;15240;50.812;4.792;2023-03-18T03:45:51;31.70;;;20.27;;
27893;SDS011;15240;50.812;4.792;2023-03-18T03:48:17;36.37;;;19.50;;
27893;SDS011;15240;50.812;4.792;2023-03-18T03:50:43;34.70;;;20.30;;
27893;SDS011;15240;50.812;4.792;2023-03-18T03:53:09;33.20;;;19.50;;
27893;SDS011;15240;50.812;4.792;2023-03-18T03:55:35;28.93;;;19.00;;
27893;SDS011;15240;50.812;4.792;2023-03-18T03:58:01;31.93;;;19.20;;
27893;SDS011;15240;50.812;4.792;2023-03-18T04:00:28;32.97;;;19.10;;
27893;SDS011;15240;50.812;4.792;2023-03-18T04:02:54;32.27;;;19.30;;
27893;SDS011;15240;50.812;4.792;2023-03-18T04:05:22;31.80;;;19.60;;
27893;SDS011;15240;50.812;4.792;2023-03-18T04:07:48;34.23;;;20.20;;
27893;SDS011;15240;50.812;4.792;2023-03-18T04:10:16;32.90;;;20.83;;
27893;SDS011;15240;50.812;4.792;2023-03-18T04:12:42;36.43;;;20.03;;
27893;SDS011;15240;50.812;4.792;2023-03-18T04:15:12;30.83;;;20.33;;
27893;SDS011;15240;50.812;4.792;2023-03-18T04:17:39;35.47;;;20.53;;
27893;SDS011;15240;50.812;4.792;2023-03-18T04:20:06;32.80;;;21.10;;
27893;SDS011;15240;50.812;4.792;2023-03-18T04:22:32;30.50;;;20.23;;
27893;SDS011;15240;50.812;4.792;2023-03-18T04:24:58;37.67;;;20.43;;
27893;SDS011;15240;50.812;4.792;2023-03-18T04:27:25;33.90;;;20.87;;
27893;SDS011;15240;50.812;4.792;2023-03-18T04:29:52;39.50;;;22.97;;
27893;SDS011;15240;50.812;4.792;2023-03-18T04:32:18;38.27;;;22.83;;
27893;SDS011;15240;50.812;4.792;2023-03-18T04:34:44;38.67;;;24.03;;
27893;SDS011;15240;50.812;4.792;2023-03-18T04:37:10;43.87;;;23.70;;
27893;SDS011;15240;50.812;4.792;2023-03-18T04:39:38;41.57;;;24.20;;
27893;SDS011;15240;50.812;4.792;2023-03-18T04:42:05;38.93;;;23.40;;
27893;SDS011;15240;50.812;4.792;2023-03-18T04:44:31;40.17;;;24.13;;
27893;SDS011;15240;50.812;4.792;2023-03-18T04:46:57;46.37;;;24.93;;
27893;SDS011;15240;50.812;4.792;2023-03-18T04:49:24;45.10;;;25.00;;
27893;SDS011;15240;50.812;4.792;2023-03-18T04:51:50;41.70;;;25.33;;
27893;SDS011;15240;50.812;4.792;2023-03-18T04:54:16;48.13;;;25.60;;
27893;SDS011;15240;50.812;4.792;2023-03-18T04:56:42;45.90;;;25.63;;
27893;SDS011;15240;50.812;4.792;2023-03-18T04:59:08;43.00;;;24.73;;
27893;SDS011;15240;50.812;4.792;2023-03-18T05:01:35;49.67;;;26.63;;
27893;SDS011;15240;50.812;4.792;2023-03-18T05:04:01;46.47;;;25.00;;
27893;SDS011;15240;50.812;4.792;2023-03-18T05:06:28;46.07;;;25.67;;
27893;SDS011;15240;50.812;4.792;2023-03-18T05:08:54;48.70;;;25.60;;
27893;SDS011;15240;50.812;4.792;2023-03-18T05:11:21;45.90;;;24.77;;
27893;SDS011;15240;50.812;4.792;2023-03-18T05:13:47;47.23;;;26.43;;
27893;SDS011;15240;50.812;4.792;2023-03-18T05:16:13;51.73;;;26.13;;
27893;SDS011;15240;50.812;4.792;2023-03-18T05:18:39;49.33;;;26.40;;
27893;SDS011;15240;50.812;4.792;2023-03-18T05:21:09;51.30;;;25.80;;
27893;SDS011;15240;50.812;4.792;2023-03-18T05:23:36;47.40;;;26.13;;
27893;SDS011;15240;50.812;4.792;2023-03-18T05:26:03;50.43;;;26.33;;
27893;SDS011;15240;50.812;4.792;2023-03-18T05:28:30;49.47;;;26.80;;
27893;SDS011;15240;50.812;4.792;2023-03-18T05:30:56;45.90;;;26.33;;
27893;SDS011;15240;50.812;4.792;2023-03-18T05:33:23;48.83;;;25.47;;
27893;SDS011;15240;50.812;4.792;2023-03-18T05:35:49;50.67;;;27.43;;
27893;SDS011;15240;50.812;4.792;2023-03-18T05:38:15;48.53;;;26.70;;
27893;SDS011;15240;50.812;4.792;2023-03-18T05:40:41;54.27;;;27.53;;
27893;SDS011;15240;50.812;4.792;2023-03-18T05:43:07;53.90;;;27.63;;
27893;SDS011;15240;50.812;4.792;2023-03-18T05:45:34;54.70;;;29.40;;
27893;SDS011;15240;50.812;4.792;2023-03-18T05:48:00;52.53;;;28.03;;
27893;SDS011;15240;50.812;4.792;2023-03-18T05:50:29;54.70;;;28.20;;
27893;SDS011;15240;50.812;4.792;2023-03-18T05:52:55;51.13;;;27.43;;
27893;SDS011;15240;50.812;4.792;2023-03-18T05:55:21;51.43;;;27.53;;
27893;SDS011;15240;50.812;4.792;2023-03-18T05:57:47;54.70;;;27.90;;
27893;SDS011;15240;50.812;4.792;2023-03-18T06:00:14;46.43;;;26.23;;
27893;SDS011;15240;50.812;4.792;2023-03-18T06:02:42;50.73;;;26.53;;
27893;SDS011;15240;50.812;4.792;2023-03-18T06:05:09;48.60;;;26.63;;
27893;SDS011;15240;50.812;4.792;2023-03-18T06:07:36;44.60;;;25.67;;
27893;SDS011;15240;50.812;4.792;2023-03-18T06:10:02;47.33;;;26.60;;
27893;SDS011;15240;50.812;4.792;2023-03-18T06:12:28;46.00;;;26.10;;
27893;SDS011;15240;50.812;4.792;2023-03-18T06:14:54;46.90;;;25.90;;
27893;SDS011;15240;50.812;4.792;2023-03-18T06:17:20;49.17;;;25.37;;
27893;SDS011;15240;50.812;4.792;2023-03-18T06:19:47;39.97;;;24.20;;
27893;SDS011;15240;50.812;4.792;2023-03-18T06:22:14;45.13;;;25.47;;
27893;SDS011;15240;50.812;4.792;2023-03-18T06:24:43;43.50;;;23.87;;
27893;SDS011;15240;50.812;4.792;2023-03-18T06:27:09;38.57;;;23.60;;
27893;SDS011;15240;50.812;4.792;2023-03-18T06:29:35;37.43;;;21.93;;
27893;SDS011;15240;50.812;4.792;2023-03-18T06:32:02;37.57;;;22.80;;
27893;SDS011;15240;50.812;4.792;2023-03-18T06:34:28;40.90;;;23.87;;
27893;SDS011;15240;50.812;4.792;2023-03-18T06:36:54;36.60;;;21.33;;
27893;SDS011;15240;50.812;4.792;2023-03-18T06:39:20;36.40;;;20.77;;
27893;SDS011;15240;50.812;4.792;2023-03-18T06:41:47;37.90;;;21.30;;
27893;SDS011;15240;50.812;4.792;2023-03-18T06:44:13;31.60;;;19.47;;
27893;SDS011;15240;50.812;4.792;2023-03-18T06:46:39;28.33;;;18.87;;
27893;SDS011;15240;50.812;4.792;2023-03-18T06:49:06;30.93;;;17.83;;
27893;SDS011;15240;50.812;4.792;2023-03-18T06:51:32;26.27;;;18.37;;
27893;SDS011;15240;50.812;4.792;2023-03-18T06:53:58;24.60;;;16.93;;
27893;SDS011;15240;50.812;4.792;2023-03-18T06:56:25;20.43;;;14.70;;
27893;SDS011;15240;50.812;4.792;2023-03-18T06:58:51;20.73;;;14.30;;
27893;SDS011;15240;50.812;4.792;2023-03-18T07:01:17;19.83;;;13.50;;
27893;SDS011;15240;50.812;4.792;2023-03-18T07:03:43;20.83;;;13.23;;
27893;SDS011;15240;50.812;4.792;2023-03-18T07:06:10;18.73;;;13.60;;
27893;SDS011;15240;50.812;4.792;2023-03-18T07:08:36;17.57;;;12.57;;
27893;SDS011;15240;50.812;4.792;2023-03-18T07:11:03;18.77;;;13.00;;
27893;SDS011;15240;50.812;4.792;2023-03-18T07:13:31;20.33;;;12.97;;
27893;SDS011;15240;50.812;4.792;2023-03-18T07:15:58;20.20;;;12.63;;
27893;SDS011;15240;50.812;4.792;2023-03-18T07:18:24;18.73;;;12.33;;
27893;SDS011;15240;50.812;4.792;2023-03-18T07:20:51;17.30;;;12.17;;
27893;SDS011;15240;50.812;4.792;2023-03-18T07:23:17;19.77;;;12.73;;
27893;SDS011;15240;50.812;4.792;2023-03-18T07:25:44;16.80;;;11.60;;
27893;SDS011;15240;50.812;4.792;2023-03-18T07:28:10;16.70;;;11.33;;
27893;SDS011;15240;50.812;4.792;2023-03-18T07:30:36;13.03;;;10.03;;
27893;SDS011;15240;50.812;4.792;2023-03-18T07:33:03;14.67;;;10.70;;
27893;SDS011;15240;50.812;4.792;2023-03-18T07:35:29;14.20;;;10.70;;
27893;SDS011;15240;50.812;4.792;2023-03-18T07:37:55;14.07;;;10.47;;
27893;SDS011;15240;50.812;4.792;2023-03-18T07:40:21;15.80;;;9.87;;
27893;SDS011;15240;50.812;4.792;2023-03-18T07:42:48;13.90;;;10.03;;
27893;SDS011;15240;50.812;4.792;2023-03-18T07:45:15;14.60;;;9.87;;
27893;SDS011;15240;50.812;4.792;2023-03-18T07:47:42;14.63;;;9.70;;
27893;SDS011;15240;50.812;4.792;2023-03-18T07:50:08;13.30;;;9.50;;
27893;SDS011;15240;50.812;4.792;2023-03-18T07:52:34;15.10;;;9.57;;
27893;SDS011;15240;50.812;4.792;2023-03-18T07:55:01;12.00;;;9.30;;
27893;SDS011;15240;50.812;4.792;2023-03-18T07:57:28;14.13;;;9.47;;
27893;SDS011;15240;50.812;4.792;2023-03-18T07:59:54;15.13;;;9.37;;
27893;SDS011;15240;50.812;4.792;2023-03-18T08:02:20;13.90;;;9.57;;
27893;SDS011;15240;50.812;4.792;2023-03-18T08:04:47;11.77;;;9.20;;
27893;SDS011;15240;50.812;4.792;2023-03-18T08:07:14;12.87;;;9.30;;
27893;SDS011;15240;50.812;4.792;2023-03-18T08:09:41;15.13;;;10.23;;
27893;SDS011;15240;50.812;4.792;2023-03-18T08:12:07;13.63;;;9.23;;
27893;SDS011;15240;50.812;4.792;2023-03-18T08:14:33;14.93;;;9.27;;
27893;SDS011;15240;50.812;4.792;2023-03-18T08:16:59;12.63;;;8.87;;
27893;SDS011;15240;50.812;4.792;2023-03-18T08:19:25;14.77;;;9.03;;
27893;SDS011;15240;50.812;4.792;2023-03-18T08:21:52;13.63;;;9.30;;
27893;SDS011;15240;50.812;4.792;2023-03-18T08:24:18;12.47;;;8.53;;
27893;SDS011;15240;50.812;4.792;2023-03-18T08:26:44;14.53;;;8.33;;
27893;SDS011;15240;50.812;4.792;2023-03-18T08:29:11;11.77;;;7.60;;
27893;SDS011;15240;50.812;4.792;2023-03-18T08:31:37;9.93;;;7.23;;
27893;SDS011;15240;50.812;4.792;2023-03-18T08:34:03;10.60;;;7.27;;
27893;SDS011;15240;50.812;4.792;2023-03-18T08:36:29;9.43;;;6.50;;
27893;SDS011;15240;50.812;4.792;2023-03-18T08:38:56;9.17;;;6.60;;
27893;SDS011;15240;50.812;4.792;2023-03-18T08:41:22;8.80;;;6.53;;
27893;SDS011;15240;50.812;4.792;2023-03-18T08:43:50;9.13;;;5.83;;
27893;SDS011;15240;50.812;4.792;2023-03-18T08:46:17;8.63;;;5.97;;
27893;SDS011;15240;50.812;4.792;2023-03-18T08:48:43;8.40;;;5.70;;
27893;SDS011;15240;50.812;4.792;2023-03-18T08:51:09;8.03;;;5.30;;
27893;SDS011;15240;50.812;4.792;2023-03-18T08:53:35;7.57;;;5.47;;
27893;SDS011;15240;50.812;4.792;2023-03-18T08:56:02;7.63;;;4.97;;
27893;SDS011;15240;50.812;4.792;2023-03-18T08:58:30;7.30;;;4.67;;
27893;SDS011;15240;50.812;4.792;2023-03-18T09:00:56;7.50;;;4.77;;
27893;SDS011;15240;50.812;4.792;2023-03-18T09:03:22;10.33;;;5.70;;
27893;SDS011;15240;50.812;4.792;2023-03-18T09:05:49;7.37;;;4.50;;
27893;SDS011;15240;50.812;4.792;2023-03-18T09:08:16;7.23;;;4.80;;
27893;SDS011;15240;50.812;4.792;2023-03-18T09:10:43;6.47;;;4.60;;
27893;SDS011;15240;50.812;4.792;2023-03-18T09:13:09;7.10;;;4.63;;
27893;SDS011;15240;50.812;4.792;2023-03-18T09:15:36;7.17;;;4.83;;
27893;SDS011;15240;50.812;4.792;2023-03-18T09:18:02;7.90;;;4.37;;
27893;SDS011;15240;50.812;4.792;2023-03-18T09:20:28;7.77;;;4.30;;
27893;SDS011;15240;50.812;4.792;2023-03-18T09:22:54;7.93;;;4.50;;
27893;SDS011;15240;50.812;4.792;2023-03-18T09:25:21;7.30;;;4.90;;
27893;SDS011;15240;50.812;4.792;2023-03-18T09:27:48;7.30;;;4.10;;
27893;SDS011;15240;50.812;4.792;2023-03-18T09:30:14;6.07;;;3.80;;
27893;SDS011;15240;50.812;4.792;2023-03-18T09:32:40;6.70;;;4.33;;
27893;SDS011;15240;50.812;4.792;2023-03-18T09:35:07;5.47;;;4.00;;
27893;SDS011;15240;50.812;4.792;2023-03-18T09:37:33;6.80;;;4.07;;
27893;SDS011;15240;50.812;4.792;2023-03-18T09:40:00;7.03;;;3.73;;
27893;SDS011;15240;50.812;4.792;2023-03-18T09:44:53;6.47;;;3.63;;
27893;SDS011;15240;50.812;4.792;2023-03-18T09:52:31;7.23;;;3.80;;
27893;SDS011;15240;50.812;4.792;2023-03-18T09:55:02;4.67;;;3.30;;
27893;SDS011;15240;50.812;4.792;2023-03-18T09:57:36;7.63;;;3.67;;
27893;SDS011;15240;50.812;4.792;2023-03-18T10:00:08;7.37;;;3.40;;
27893;SDS011;15240;50.812;4.792;2023-03-18T10:02:43;6.27;;;3.33;;
27893;SDS011;15240;50.812;4.792;2023-03-18T10:05:13;4.07;;;2.83;;
27893;SDS011;15240;50.812;4.792;2023-03-18T10:07:41;5.27;;;3.30;;
27893;SDS011;15240;50.812;4.792;2023-03-18T10:10:30;7.93;;;3.50;;
27893;SDS011;15240;50.812;4.792;2023-03-18T10:13:06;5.43;;;3.30;;
27893;SDS011;15240;50.812;4.792;2023-03-18T10:15:48;4.40;;;3.10;;
27893;SDS011;15240;50.812;4.792;2023-03-18T10:18:31;5.60;;;3.43;;
27893;SDS011;15240;50.812;4.792;2023-03-18T10:26:15;8.23;;;3.60;;
27893;SDS011;15240;50.812;4.792;2023-03-18T10:34:13;6.43;;;3.77;;
27893;SDS011;15240;50.812;4.792;2023-03-18T10:39:17;6.27;;;3.57;;
27893;SDS011;15240;50.812;4.792;2023-03-18T10:41:47;8.67;;;4.97;;
27893;SDS011;15240;50.812;4.792;2023-03-18T10:44:31;12.00;;;5.07;;
27893;SDS011;15240;50.812;4.792;2023-03-18T10:47:12;9.10;;;5.10;;
27893;SDS011;15240;50.812;4.792;2023-03-18T10:49:45;6.90;;;4.33;;
27893;SDS011;15240;50.812;4.792;2023-03-18T11:09:49;5.57;;;3.63;;
27893;SDS011;15240;50.812;4.792;2023-03-18T11:18:27;6.27;;;3.83;;
27893;SDS011;15240;50.812;4.792;2023-03-18T11:24:19;5.90;;;3.70;;
27893;SDS011;15240;50.812;4.792;2023-03-18T11:48:17;8.50;;;3.57;;
27893;SDS011;15240;50.812;4.792;2023-03-18T11:50:49;6.37;;;3.43;;
27893;SDS011;15240;50.812;4.792;2023-03-18T11:53:24;7.47;;;3.33;;
27893;SDS011;15240;50.812;4.792;2023-03-18T12:45:39;2.87;;;1.90;;
27893;SDS011;15240;50.812;4.792;2023-03-18T12:48:08;4.00;;;2.27;;
27893;SDS011;15240;50.812;4.792;2023-03-18T12:50:58;4.17;;;2.00;;
27893;SDS011;15240;50.812;4.792;2023-03-18T12:53:24;4.60;;;2.30;;
27893;SDS011;15240;50.812;4.792;2023-03-18T12:55:53;3.43;;;2.10;;
27893;SDS011;15240;50.812;4.792;2023-03-18T12:58:21;2.97;;;1.87;;
27893;SDS011;15240;50.812;4.792;2023-03-18T13:00:58;4.13;;;2.20;;
27893;SDS011;15240;50.812;4.792;2023-03-18T13:03:32;3.70;;;1.93;;
27893;SDS011;15240;50.812;4.792;2023-03-18T13:08:39;3.67;;;1.93;;
27893;SDS011;15240;50.812;4.792;2023-03-18T13:11:50;2.83;;;1.97;;
27893;SDS011;15240;50.812;4.792;2023-03-18T13:16:46;4.43;;;1.60;;
27893;SDS011;15240;50.812;4.792;2023-03-18T13:19:12;3.77;;;1.80;;
27893;SDS011;15240;50.812;4.792;2023-03-18T13:21:40;3.77;;;1.50;;
27893;SDS011;15240;50.812;4.792;2023-03-18T13:26:46;5.47;;;1.50;;
27893;SDS011;15240;50.812;4.792;2023-03-18T13:29:30;5.40;;;1.80;;
27893;SDS011;15240;50.812;4.792;2023-03-18T13:34:47;5.53;;;1.53;;
27893;SDS011;15240;50.812;4.792;2023-03-18T13:39:50;6.13;;;1.70;;
27893;SDS011;15240;50.812;4.792;2023-03-18T13:47:22;5.40;;;1.40;;
27893;SDS011;15240;50.812;4.792;2023-03-18T13:49:49;4.50;;;1.50;;
27893;SDS011;15240;50.812;4.792;2023-03-18T13:52:25;6.43;;;1.90;;
27893;SDS011;15240;50.812;4.792;2023-03-18T13:54:52;3.80;;;1.70;;
27893;SDS011;15240;50.812;4.792;2023-03-18T14:00:10;3.90;;;1.40;;
27893;SDS011;15240;50.812;4.792;2023-03-18T14:05:23;6.63;;;1.70;;
27893;SDS011;15240;50.812;4.792;2023-03-18T14:07:49;2.77;;;1.30;;
27893;SDS011;15240;50.812;4.792;2023-03-18T14:10:16;4.07;;;1.43;;
27893;SDS011;15240;50.812;4.792;2023-03-18T14:12:44;4.50;;;1.57;;
27893;SDS011;15240;50.812;4.792;2023-03-18T14:17:44;3.90;;;1.50;;
27893;SDS011;15240;50.812;4.792;2023-03-18T14:22:44;6.17;;;1.80;;
27893;SDS011;15240;50.812;4.792;2023-03-18T14:27:46;4.27;;;1.97;;
27893;SDS011;15240;50.812;4.792;2023-03-18T14:33:01;4.77;;;1.90;;
27893;SDS011;15240;50.812;4.792;2023-03-18T14:35:29;5.33;;;1.60;;
27893;SDS011;15240;50.812;4.792;2023-03-18T14:38:00;5.33;;;1.70;;
27893;SDS011;15240;50.812;4.792;2023-03-18T14:40:27;5.23;;;1.70;;
27893;SDS011;15240;50.812;4.792;2023-03-18T14:42:58;3.70;;;1.07;;
27893;SDS011;15240;50.812;4.792;2023-03-18T14:45:32;4.93;;;1.60;;
27893;SDS011;15240;50.812;4.792;2023-03-18T14:48:00;3.03;;;1.47;;
27893;SDS011;15240;50.812;4.792;2023-03-18T14:55:39;4.57;;;1.27;;
27893;SDS011;15240;50.812;4.792;2023-03-18T14:58:09;4.17;;;1.40;;
27893;SDS011;15240;50.812;4.792;2023-03-18T15:00:36;4.23;;;1.40;;
27893;SDS011;15240;50.812;4.792;2023-03-18T15:03:03;4.43;;;1.60;;
27893;SDS011;15240;50.812;4.792;2023-03-18T15:05:32;5.50;;;1.80;;
27893;SDS011;15240;50.812;4.792;2023-03-18T15:07:59;6.07;;;1.57;;
27893;SDS011;15240;50.812;4.792;2023-03-18T15:10:26;4.80;;;1.70;;
27893;SDS011;15240;50.812;4.792;2023-03-18T15:13:01;3.20;;;1.27;;
27893;SDS011;15240;50.812;4.792;2023-03-18T15:15:36;3.37;;;1.23;;
27893;SDS011;15240;50.812;4.792;2023-03-18T15:18:16;3.23;;;1.40;;
27893;SDS011;15240;50.812;4.792;2023-03-18T15:20:42;3.63;;;1.67;;
27893;SDS011;15240;50.812;4.792;2023-03-18T15:23:09;4.90;;;1.17;;
27893;SDS011;15240;50.812;4.792;2023-03-18T15:25:35;3.77;;;1.20;;
27893;SDS011;15240;50.812;4.792;2023-03-18T15:28:04;4.20;;;1.50;;
27893;SDS011;15240;50.812;4.792;2023-03-18T15:30:31;7.37;;;1.40;;
27893;SDS011;15240;50.812;4.792;2023-03-18T15:33:05;4.03;;;1.37;;
27893;SDS011;15240;50.812;4.792;2023-03-18T15:35:32;4.07;;;1.47;;
27893;SDS011;15240;50.812;4.792;2023-03-18T15:38:06;5.37;;;1.20;;
27893;SDS011;15240;50.812;4.792;2023-03-18T15:40:45;5.07;;;1.43;;
27893;SDS011;15240;50.812;4.792;2023-03-18T15:43:46;4.27;;;1.40;;
27893;SDS011;15240;50.812;4.792;2023-03-18T15:48:52;6.37;;;2.07;;
27893;SDS011;15240;50.812;4.792;2023-03-18T15:54:11;3.70;;;1.30;;
27893;SDS011;15240;50.812;4.792;2023-03-18T15:56:43;3.90;;;1.20;;
27893;SDS011;15240;50.812;4.792;2023-03-18T16:01:36;6.10;;;1.40;;
27893;SDS011;15240;50.812;4.792;2023-03-18T16:04:04;2.90;;;1.30;;
27893;SDS011;15240;50.812;4.792;2023-03-18T16:06:31;4.00;;;1.20;;
27893;SDS011;15240;50.812;4.792;2023-03-18T16:08:59;4.60;;;1.40;;
27893;SDS011;15240;50.812;4.792;2023-03-18T16:11:25;3.83;;;1.20;;
27893;SDS011;15240;50.812;4.792;2023-03-18T16:13:52;5.03;;;1.30;;
27893;SDS011;15240;50.812;4.792;2023-03-18T16:16:25;3.83;;;1.40;;
27893;SDS011;15240;50.812;4.792;2023-03-18T16:18:52;4.63;;;1.30;;
27893;SDS011;15240;50.812;4.792;2023-03-18T16:21:18;6.97;;;1.70;;
27893;SDS011;15240;50.812;4.792;2023-03-18T16:23:44;6.77;;;1.60;;
27893;SDS011;15240;50.812;4.792;2023-03-18T16:26:12;3.53;;;1.10;;
27893;SDS011;15240;50.812;4.792;2023-03-18T16:28:40;4.00;;;1.20;;
27893;SDS011;15240;50.812;4.792;2023-03-18T16:31:06;5.53;;;1.23;;
27893;SDS011;15240;50.812;4.792;2023-03-18T16:33:33;4.03;;;1.60;;
27893;SDS011;15240;50.812;4.792;2023-03-18T16:36:00;4.37;;;1.53;;
27893;SDS011;15240;50.812;4.792;2023-03-18T16:38:27;5.87;;;1.73;;
27893;SDS011;15240;50.812;4.792;2023-03-18T16:40:55;6.27;;;1.70;;
27893;SDS011;15240;50.812;4.792;2023-03-18T16:43:22;4.00;;;1.57;;
27893;SDS011;15240;50.812;4.792;2023-03-18T16:45:51;3.93;;;1.93;;
27893;SDS011;15240;50.812;4.792;2023-03-18T16:48:18;3.77;;;1.70;;
27893;SDS011;15240;50.812;4.792;2023-03-18T16:50:46;3.33;;;1.47;;
27893;SDS011;15240;50.812;4.792;2023-03-18T16:53:35;4.17;;;1.50;;
27893;SDS011;15240;50.812;4.792;2023-03-18T16:56:16;5.90;;;1.67;;
27893;SDS011;15240;50.812;4.792;2023-03-18T16:58:42;4.10;;;1.63;;
27893;SDS011;15240;50.812;4.792;2023-03-18T17:01:09;5.53;;;1.67;;
27893;SDS011;15240;50.812;4.792;2023-03-18T17:03:38;6.83;;;1.90;;
27893;SDS011;15240;50.812;4.792;2023-03-18T17:06:04;3.30;;;1.67;;
27893;SDS011;15240;50.812;4.792;2023-03-18T17:08:32;5.53;;;1.60;;
27893;SDS011;15240;50.812;4.792;2023-03-18T17:11:00;5.13;;;1.80;;
27893;SDS011;15240;50.812;4.792;2023-03-18T17:13:27;6.37;;;1.80;;
27893;SDS011;15240;50.812;4.792;2023-03-18T17:15:54;4.53;;;1.97;;
27893;SDS011;15240;50.812;4.792;2023-03-18T17:18:22;4.47;;;1.97;;
27893;SDS011;15240;50.812;4.792;2023-03-18T17:20:48;7.80;;;2.10;;
27893;SDS011;15240;50.812;4.792;2023-03-18T17:23:19;5.93;;;1.80;;
27893;SDS011;15240;50.812;4.792;2023-03-18T17:25:46;5.67;;;1.80;;
27893;SDS011;15240;50.812;4.792;2023-03-18T17:28:18;6.13;;;1.97;;
27893;SDS011;15240;50.812;4.792;2023-03-18T17:30:46;6.03;;;1.90;;